sensor_id;sensor_type;location;lat;lon;timestamp;P1;durP1;ratioP1;P2;durP2;ratioP2
41572;SDS011;27286;47.870;19.006;2022-11-30T07:52:22;5.22;;;2.58;;
41572;SDS011;27286;47.870;19.006;2022-11-30T07:54:48;5.13;;;2.15;;
41572;SDS011;27286;47.870;19.006;2022-11-30T07:57:13;7.13;;;2.85;;
41572;SDS011;27286;47.870;19.006;2022-11-30T07:59:39;4.30;;;1.98;;
41572;SDS011;27286;47.870;19.006;2022-11-30T08:02:04;4.95;;;2.70;;
41572;SDS011;27286;47.870;19.006;2022-11-30T08:04:29;4.40;;;1.90;;
41572;SDS011;27286;47.870;19.006;2022-11-30T08:06:55;6.55;;;2.45;;
41572;SDS011;27286;47.870;19.006;2022-11-30T08:09:21;4.65;;;2.42;;
41572;SDS011;27286;47.870;19.006;2022-11-30T08:11:47;4.55;;;2.17;;
41572;SDS011;27286;47.870;19.006;2022-11-30T08:14:13;3.65;;;1.80;;
41572;SDS011;27286;47.870;19.006;2022-11-30T08:16:38;9.93;;;2.22;;
41572;SDS011;27286;47.870;19.006;2022-11-30T08:19:04;5.15;;;2.30;;
41572;SDS011;27286;47.870;19.006;2022-11-30T08:21:29;5.40;;;1.80;;
41572;SDS011;27286;47.870;19.006;2022-11-30T08:23:56;4.32;;;1.77;;
41572;SDS011;27286;47.870;19.006;2022-11-30T08:26:23;4.00;;;1.95;;
41572;SDS011;27286;47.870;19.006;2022-11-30T08:28:52;4.78;;;2.33;;
41572;SDS011;27286;47.870;19.006;2022-11-30T08:31:24;3.67;;;1.65;;
41572;SDS011;27286;47.870;19.006;2022-11-30T08:34:16;5.45;;;1.83;;
41572;SDS011;27286;47.870;19.006;2022-11-30T08:37:05;3.42;;;2.00;;
41572;SDS011;27286;47.870;19.006;2022-11-30T08:39:31;4.35;;;1.88;;
41572;SDS011;27286;47.870;19.006;2022-11-30T08:41:58;22.23;;;4.82;;
41572;SDS011;27286;47.870;19.006;2022-11-30T08:44:24;3.67;;;1.77;;
41572;SDS011;27286;47.870;19.006;2022-11-30T08:46:49;3.83;;;2.20;;
41572;SDS011;27286;47.870;19.006;2022-11-30T08:49:15;4.63;;;1.77;;
41572;SDS011;27286;47.870;19.006;2022-11-30T08:51:40;3.75;;;1.65;;
41572;SDS011;27286;47.870;19.006;2022-11-30T08:54:06;4.70;;;1.75;;
41572;SDS011;27286;47.870;19.006;2022-11-30T08:56:32;4.85;;;2.08;;
41572;SDS011;27286;47.870;19.006;2022-11-30T08:59:08;4.30;;;2.00;;
41572;SDS011;27286;47.870;19.006;2022-11-30T09:01:34;4.65;;;2.10;;
41572;SDS011;27286;47.870;19.006;2022-11-30T09:04:00;4.35;;;1.60;;
41572;SDS011;27286;47.870;19.006;2022-11-30T09:06:26;6.70;;;1.98;;
41572;SDS011;27286;47.870;19.006;2022-11-30T09:08:54;4.03;;;1.88;;
41572;SDS011;27286;47.870;19.006;2022-11-30T09:11:41;4.20;;;2.22;;
41572;SDS011;27286;47.870;19.006;2022-11-30T09:14:08;4.25;;;1.85;;
41572;SDS011;27286;47.870;19.006;2022-11-30T09:16:34;4.53;;;2.22;;
41572;SDS011;27286;47.870;19.006;2022-11-30T09:18:59;3.78;;;1.95;;
41572;SDS011;27286;47.870;19.006;2022-11-30T09:21:25;4.82;;;2.40;;
41572;SDS011;27286;47.870;19.006;2022-11-30T09:23:51;4.30;;;2.10;;
41572;SDS011;27286;47.870;19.006;2022-11-30T09:26:18;3.50;;;1.60;;
41572;SDS011;27286;47.870;19.006;2022-11-30T09:28:45;4.57;;;1.80;;
41572;SDS011;27286;47.870;19.006;2022-11-30T09:31:12;7.63;;;1.80;;
41572;SDS011;27286;47.870;19.006;2022-11-30T09:33:39;2.88;;;1.40;;
41572;SDS011;27286;47.870;19.006;2022-11-30T09:36:06;3.28;;;1.98;;
41572;SDS011;27286;47.870;19.006;2022-11-30T09:38:34;3.03;;;1.48;;
41572;SDS011;27286;47.870;19.006;2022-11-30T09:41:01;3.85;;;1.70;;
41572;SDS011;27286;47.870;19.006;2022-11-30T09:43:51;3.28;;;1.63;;
41572;SDS011;27286;47.870;19.006;2022-11-30T09:46:28;5.93;;;0.93;;
41572;SDS011;27286;47.870;19.006;2022-11-30T09:51:27;2.55;;;0.90;;
41572;SDS011;27286;47.870;19.006;2022-11-30T09:53:58;3.50;;;1.20;;
41572;SDS011;27286;47.870;19.006;2022-11-30T09:56:34;2.53;;;1.20;;
41572;SDS011;27286;47.870;19.006;2022-11-30T10:01:39;2.35;;;0.95;;
41572;SDS011;27286;47.870;19.006;2022-11-30T10:04:04;2.65;;;1.00;;
41572;SDS011;27286;47.870;19.006;2022-11-30T10:09:47;10.98;;;1.55;;
41572;SDS011;27286;47.870;19.006;2022-11-30T10:12:42;2.15;;;0.75;;
41572;SDS011;27286;47.870;19.006;2022-11-30T10:17:54;2.58;;;1.05;;
41572;SDS011;27286;47.870;19.006;2022-11-30T10:26:05;2.17;;;1.00;;
41572;SDS011;27286;47.870;19.006;2022-11-30T10:31:34;2.78;;;0.98;;
41572;SDS011;27286;47.870;19.006;2022-11-30T10:37:21;3.78;;;1.40;;
41572;SDS011;27286;47.870;19.006;2022-11-30T10:44:21;4.90;;;2.63;;
41572;SDS011;27286;47.870;19.006;2022-11-30T10:47:11;4.72;;;2.63;;
41572;SDS011;27286;47.870;19.006;2022-11-30T10:49:47;7.30;;;1.98;;
41572;SDS011;27286;47.870;19.006;2022-11-30T10:56:09;5.47;;;2.00;;
41572;SDS011;27286;47.870;19.006;2022-11-30T10:59:02;4.20;;;1.73;;
41572;SDS011;27286;47.870;19.006;2022-11-30T11:01:37;2.90;;;1.60;;
41572;SDS011;27286;47.870;19.006;2022-11-30T11:04:13;8.55;;;2.22;;
41572;SDS011;27286;47.870;19.006;2022-11-30T11:09:42;3.88;;;1.60;;
41572;SDS011;27286;47.870;19.006;2022-11-30T11:12:17;3.28;;;1.58;;
41572;SDS011;27286;47.870;19.006;2022-11-30T11:15:24;4.95;;;2.47;;
41572;SDS011;27286;47.870;19.006;2022-11-30T11:17:51;4.05;;;2.10;;
41572;SDS011;27286;47.870;19.006;2022-11-30T11:20:28;4.38;;;2.17;;
41572;SDS011;27286;47.870;19.006;2022-11-30T11:23:02;3.58;;;1.83;;
41572;SDS011;27286;47.870;19.006;2022-11-30T11:28:20;5.82;;;2.13;;
41572;SDS011;27286;47.870;19.006;2022-11-30T11:30:48;6.40;;;2.05;;
41572;SDS011;27286;47.870;19.006;2022-11-30T11:33:19;5.20;;;1.83;;
41572;SDS011;27286;47.870;19.006;2022-11-30T11:35:48;5.75;;;2.78;;
41572;SDS011;27286;47.870;19.006;2022-11-30T11:44:19;10.80;;;2.28;;
41572;SDS011;27286;47.870;19.006;2022-11-30T11:48:03;4.32;;;2.10;;
41572;SDS011;27286;47.870;19.006;2022-11-30T11:51:47;3.72;;;2.05;;
41572;SDS011;27286;47.870;19.006;2022-11-30T11:55:15;4.40;;;2.05;;
41572;SDS011;27286;47.870;19.006;2022-11-30T11:58:17;4.60;;;1.98;;
41572;SDS011;27286;47.870;19.006;2022-11-30T12:05:14;3.65;;;1.98;;
41572;SDS011;27286;47.870;19.006;2022-11-30T12:11:56;6.18;;;2.72;;
41572;SDS011;27286;47.870;19.006;2022-11-30T12:20:39;4.20;;;2.40;;
41572;SDS011;27286;47.870;19.006;2022-11-30T12:23:25;9.15;;;2.22;;
41572;SDS011;27286;47.870;19.006;2022-11-30T12:26:00;4.00;;;2.05;;
41572;SDS011;27286;47.870;19.006;2022-11-30T12:29:47;4.82;;;2.20;;
41572;SDS011;27286;47.870;19.006;2022-11-30T12:34:47;4.38;;;2.00;;
41572;SDS011;27286;47.870;19.006;2022-11-30T12:37:36;3.28;;;1.42;;
41572;SDS011;27286;47.870;19.006;2022-11-30T12:40:12;4.97;;;1.73;;
41572;SDS011;27286;47.870;19.006;2022-11-30T12:42:45;3.63;;;1.70;;
41572;SDS011;27286;47.870;19.006;2022-11-30T12:45:33;3.67;;;1.85;;
41572;SDS011;27286;47.870;19.006;2022-11-30T12:57:15;9.38;;;2.60;;
41572;SDS011;27286;47.870;19.006;2022-11-30T13:03:28;5.43;;;2.85;;
41572;SDS011;27286;47.870;19.006;2022-11-30T13:06:56;6.85;;;2.83;;
41572;SDS011;27286;47.870;19.006;2022-11-30T13:10:24;5.53;;;2.65;;
41572;SDS011;27286;47.870;19.006;2022-11-30T13:12:55;5.80;;;2.55;;
41572;SDS011;27286;47.870;19.006;2022-11-30T13:15:24;6.15;;;2.65;;
41572;SDS011;27286;47.870;19.006;2022-11-30T13:17:52;7.95;;;3.00;;
41572;SDS011;27286;47.870;19.006;2022-11-30T13:20:25;4.68;;;2.50;;
41572;SDS011;27286;47.870;19.006;2022-11-30T13:24:01;5.30;;;2.90;;
41572;SDS011;27286;47.870;19.006;2022-11-30T13:27:09;4.72;;;2.22;;
41572;SDS011;27286;47.870;19.006;2022-11-30T13:30:40;4.60;;;2.38;;
41572;SDS011;27286;47.870;19.006;2022-11-30T14:09:57;8.32;;;2.15;;
41572;SDS011;27286;47.870;19.006;2022-11-30T14:14:59;5.15;;;2.22;;
41572;SDS011;27286;47.870;19.006;2022-11-30T14:17:26;32.47;;;3.60;;
41572;SDS011;27286;47.870;19.006;2022-11-30T14:19:57;9.85;;;3.38;;
41572;SDS011;27286;47.870;19.006;2022-11-30T14:22:26;10.65;;;2.83;;
41572;SDS011;27286;47.870;19.006;2022-11-30T14:24:53;5.75;;;2.83;;
41572;SDS011;27286;47.870;19.006;2022-11-30T14:30:30;5.63;;;2.80;;
41572;SDS011;27286;47.870;19.006;2022-11-30T14:33:26;5.30;;;2.40;;
41572;SDS011;27286;47.870;19.006;2022-11-30T14:36:47;5.88;;;3.28;;
41572;SDS011;27286;47.870;19.006;2022-11-30T14:39:51;10.65;;;2.17;;
41572;SDS011;27286;47.870;19.006;2022-11-30T14:42:23;5.20;;;2.33;;
41572;SDS011;27286;47.870;19.006;2022-11-30T14:44:51;7.82;;;3.08;;
41572;SDS011;27286;47.870;19.006;2022-11-30T14:58:58;6.30;;;2.97;;
41572;SDS011;27286;47.870;19.006;2022-11-30T15:01:45;12.32;;;2.85;;
41572;SDS011;27286;47.870;19.006;2022-11-30T15:04:13;6.30;;;2.40;;
41572;SDS011;27286;47.870;19.006;2022-11-30T15:06:41;4.10;;;2.53;;
41572;SDS011;27286;47.870;19.006;2022-11-30T15:09:28;6.30;;;2.05;;
41572;SDS011;27286;47.870;19.006;2022-11-30T15:12:43;6.18;;;2.80;;
41572;SDS011;27286;47.870;19.006;2022-11-30T15:15:15;7.85;;;2.80;;
41572;SDS011;27286;47.870;19.006;2022-11-30T15:17:43;5.47;;;2.70;;
41572;SDS011;27286;47.870;19.006;2022-11-30T15:20:22;6.82;;;3.67;;
41572;SDS011;27286;47.870;19.006;2022-11-30T15:23:12;5.22;;;2.72;;
41572;SDS011;27286;47.870;19.006;2022-11-30T15:25:44;6.72;;;3.40;;
41572;SDS011;27286;47.870;19.006;2022-11-30T15:28:11;6.38;;;3.60;;
41572;SDS011;27286;47.870;19.006;2022-11-30T15:30:47;8.80;;;3.28;;
41572;SDS011;27286;47.870;19.006;2022-11-30T15:33:17;8.27;;;4.88;;
41572;SDS011;27286;47.870;19.006;2022-11-30T15:36:12;8.32;;;3.78;;
41572;SDS011;27286;47.870;19.006;2022-11-30T15:38:46;7.70;;;3.85;;
41572;SDS011;27286;47.870;19.006;2022-11-30T15:41:41;9.20;;;2.88;;
